createdAt,value
2017-08-31T05:04:14.650Z,19.54
2017-08-31T05:06:40.904Z,19.49
2017-08-31T05:09:07.145Z,19.47
2017-08-31T05:11:33.379Z,19.48
2017-08-31T05:13:59.603Z,19.45
2017-08-31T05:16:32.841Z,19.53
2017-08-31T05:18:59.083Z,19.55
2017-08-31T05:21:25.309Z,19.51
2017-08-31T05:23:51.539Z,19.44
2017-08-31T05:26:17.791Z,19.47
2017-08-31T05:28:44.970Z,19.51
2017-08-31T05:31:11.232Z,19.43
2017-08-31T05:33:37.468Z,19.40
2017-08-31T05:36:03.716Z,19.39
2017-08-31T05:38:30.444Z,19.41
2017-08-31T05:40:56.839Z,19.32
2017-08-31T05:43:23.076Z,19.36
2017-08-31T05:45:49.331Z,19.35
2017-08-31T05:48:15.603Z,19.22
2017-08-31T05:50:42.221Z,19.19
2017-08-31T05:53:08.476Z,19.19
2017-08-31T05:55:34.796Z,19.21
2017-08-31T05:58:01.028Z,19.21
2017-08-31T06:00:27.278Z,19.14
2017-08-31T06:02:53.532Z,19.15
2017-08-31T06:05:19.764Z,19.14
2017-08-31T06:07:46.003Z,19.13
2017-08-31T06:10:12.636Z,19.11
2017-08-31T06:12:38.867Z,19.13
2017-08-31T06:15:05.151Z,19.11
2017-08-31T06:17:31.395Z,19.13
2017-08-31T06:19:57.624Z,19.06
2017-08-31T06:22:23.851Z,19.14
2017-08-31T06:24:50.092Z,19.14
2017-08-31T06:27:16.295Z,19.08
2017-08-31T06:29:42.519Z,19.08
2017-08-31T06:32:09.235Z,19.09
2017-08-31T06:34:35.451Z,19.15
2017-08-31T06:37:01.860Z,19.18
2017-08-31T06:39:28.135Z,19.17
2017-08-31T06:41:55.466Z,19.08
2017-08-31T06:44:21.688Z,19.14
2017-08-31T06:46:47.945Z,19.12
2017-08-31T06:49:14.150Z,18.68
2017-08-31T06:51:40.394Z,18.50
2017-08-31T06:54:06.632Z,18.45
2017-08-31T06:56:32.852Z,18.32
2017-08-31T06:58:59.256Z,18.47
2017-08-31T07:01:25.460Z,18.37
2017-08-31T07:03:51.684Z,18.26
2017-08-31T07:06:17.939Z,18.22
2017-08-31T07:08:44.155Z,18.13
2017-08-31T07:11:10.391Z,18.15
2017-08-31T07:13:36.774Z,18.08
2017-08-31T07:16:03.000Z,18.04
2017-08-31T07:18:29.245Z,18.10
2017-08-31T07:20:55.488Z,18.07
2017-08-31T07:23:21.692Z,18.06
2017-08-31T07:25:47.939Z,17.96
2017-08-31T07:28:14.215Z,18.04
2017-08-31T07:30:40.427Z,17.84
2017-08-31T07:33:06.655Z,17.84
2017-08-31T07:35:32.989Z,17.87
2017-08-31T07:37:59.207Z,17.96
2017-08-31T07:40:25.419Z,17.89
2017-08-31T07:42:51.643Z,17.90
2017-08-31T07:45:18.085Z,17.90
2017-08-31T07:47:44.296Z,17.96
2017-08-31T07:50:11.055Z,17.99
2017-08-31T07:52:37.302Z,17.97
2017-08-31T07:55:03.503Z,17.86
2017-08-31T07:57:29.706Z,17.77
2017-08-31T07:59:55.920Z,17.76
2017-08-31T08:02:22.133Z,17.82
2017-08-31T08:04:48.340Z,17.87
2017-08-31T08:07:14.616Z,17.92
2017-08-31T08:09:40.919Z,17.92
2017-08-31T08:12:07.275Z,17.92
2017-08-31T08:14:34.741Z,17.69
2017-08-31T08:17:00.945Z,17.68
2017-08-31T08:19:27.207Z,17.68
2017-08-31T08:21:53.446Z,17.78
2017-08-31T08:24:19.654Z,17.75
2017-08-31T08:26:46.217Z,17.65
2017-08-31T08:29:12.438Z,17.80
2017-08-31T08:31:38.636Z,17.83
2017-08-31T08:34:04.923Z,17.79
2017-08-31T08:36:31.140Z,17.51
2017-08-31T08:38:57.354Z,17.44
2017-08-31T08:41:23.625Z,17.52
2017-08-31T08:43:49.886Z,17.46
2017-08-31T08:46:16.114Z,17.49
2017-08-31T08:48:42.547Z,17.39
2017-08-31T08:51:08.787Z,17.30
2017-08-31T08:53:35.031Z,17.29
2017-08-31T08:56:01.256Z,17.41
2017-08-31T08:58:27.515Z,17.36
2017-08-31T09:00:53.903Z,17.36
2017-08-31T09:03:20.164Z,17.28
2017-08-31T09:05:46.372Z,17.39
2017-08-31T09:08:12.637Z,17.36
2017-08-31T09:10:38.850Z,17.35
2017-08-31T09:13:05.057Z,17.31
2017-08-31T09:15:31.727Z,17.37
2017-08-31T09:17:57.935Z,17.30
2017-08-31T09:20:24.155Z,17.21
2017-08-31T09:22:50.686Z,17.16
2017-08-31T09:25:16.891Z,16.96
2017-08-31T09:27:43.112Z,16.98
2017-08-31T09:30:09.567Z,17.12
2017-08-31T09:32:35.783Z,17.15
2017-08-31T09:35:02.052Z,17.07
2017-08-31T09:37:28.462Z,17.07
2017-08-31T09:39:54.665Z,16.98
2017-08-31T09:42:20.906Z,16.90
2017-08-31T09:44:47.139Z,16.92
2017-08-31T09:47:13.349Z,17.01
2017-08-31T09:49:39.578Z,16.89
2017-08-31T09:52:05.859Z,16.96
2017-08-31T09:54:32.109Z,16.88
2017-08-31T09:56:58.327Z,17.01
2017-08-31T09:59:24.822Z,17.00
2017-08-31T10:01:51.045Z,16.97
2017-08-31T10:04:17.268Z,17.08
2017-08-31T10:06:43.813Z,17.07
2017-08-31T10:09:10.071Z,16.96
2017-08-31T10:11:36.296Z,16.94
2017-08-31T10:14:03.005Z,17.16
2017-08-31T10:16:29.240Z,16.83
2017-08-31T10:18:55.440Z,16.74
2017-08-31T10:21:21.780Z,16.71
2017-08-31T10:23:47.983Z,16.90
2017-08-31T10:26:14.206Z,16.75
2017-08-31T10:28:40.478Z,16.82
2017-08-31T10:31:06.720Z,16.88
2017-08-31T10:33:32.972Z,16.71
2017-08-31T10:35:59.513Z,16.71
2017-08-31T10:38:25.736Z,16.73
2017-08-31T10:40:51.983Z,16.86
2017-08-31T10:43:18.395Z,16.97
2017-08-31T10:45:44.632Z,17.00
2017-08-31T10:48:10.863Z,16.97
2017-08-31T10:50:37.284Z,16.81
2017-08-31T10:53:03.516Z,16.87
2017-08-31T10:55:29.742Z,17.08
2017-08-31T10:57:56.172Z,16.86
2017-08-31T11:00:22.415Z,16.95
2017-08-31T11:02:48.631Z,16.97
2017-08-31T11:05:15.165Z,16.96
2017-08-31T11:07:41.412Z,16.96
2017-08-31T11:10:07.647Z,17.06
2017-08-31T11:12:33.927Z,16.88
2017-08-31T11:15:00.156Z,17.02
2017-08-31T11:17:26.398Z,17.19
2017-08-31T11:19:52.856Z,17.13
2017-08-31T11:22:19.096Z,17.17
2017-08-31T11:24:45.337Z,17.22
2017-08-31T11:27:11.666Z,17.18
2017-08-31T11:29:38.030Z,17.22
2017-08-31T11:32:04.379Z,17.13
2017-08-31T11:34:30.749Z,17.07
2017-08-31T11:36:56.902Z,17.10
2017-08-31T11:39:23.203Z,17.04
2017-08-31T11:41:49.412Z,17.26
2017-08-31T11:44:15.652Z,17.45
2017-08-31T11:46:41.896Z,17.36
2017-08-31T11:49:08.103Z,17.57
2017-08-31T11:51:34.370Z,17.98
2017-08-31T11:54:00.914Z,18.15
2017-08-31T11:56:27.124Z,17.93
2017-08-31T11:58:53.336Z,18.02
2017-08-31T12:01:19.907Z,17.90
2017-08-31T12:03:46.112Z,18.17
2017-08-31T12:06:12.311Z,18.06
2017-08-31T12:08:38.552Z,18.21
2017-08-31T12:11:04.796Z,18.51
2017-08-31T12:13:31.031Z,18.65
2017-08-31T12:15:57.268Z,18.72
2017-08-31T12:18:23.489Z,18.47
2017-08-31T12:20:49.710Z,18.44
2017-08-31T12:23:15.959Z,18.47
2017-08-31T12:25:42.156Z,18.83
2017-08-31T12:28:08.356Z,18.81
2017-08-31T12:30:34.737Z,18.79
2017-08-31T12:33:00.974Z,18.75
2017-08-31T12:35:27.216Z,18.76
2017-08-31T12:37:53.425Z,18.71
2017-08-31T12:40:19.665Z,19.72
2017-08-31T12:42:45.896Z,20.54
2017-08-31T12:45:12.099Z,21.23
2017-08-31T12:47:38.314Z,20.78
2017-08-31T12:50:04.767Z,20.89
2017-08-31T12:52:30.967Z,20.53
2017-08-31T12:54:57.207Z,19.90
2017-08-31T12:57:23.456Z,19.76
2017-08-31T12:59:49.658Z,19.55
2017-08-31T13:02:15.854Z,19.56
2017-08-31T13:04:42.092Z,19.67
2017-08-31T13:07:09.051Z,19.53
2017-08-31T13:09:35.259Z,19.57
2017-08-31T13:12:01.486Z,19.40
2017-08-31T13:14:27.684Z,19.22
2017-08-31T13:16:53.891Z,19.26
2017-08-31T13:19:20.132Z,19.09
2017-08-31T13:21:46.347Z,18.84
2017-08-31T13:24:12.566Z,18.75
2017-08-31T13:26:38.947Z,18.61
2017-08-31T13:29:05.173Z,18.58
2017-08-31T13:31:31.399Z,18.54
2017-08-31T13:33:57.639Z,18.32
2017-08-31T13:36:24.343Z,18.30
2017-08-31T13:38:50.563Z,18.57
2017-08-31T13:41:16.789Z,18.82
2017-08-31T13:43:42.988Z,18.66
2017-08-31T13:46:09.194Z,18.41
2017-08-31T13:48:35.453Z,18.43
2017-08-31T13:51:01.683Z,18.43
2017-08-31T13:53:27.920Z,18.36
2017-08-31T13:55:54.133Z,18.32
2017-08-31T13:58:20.331Z,18.26
2017-08-31T14:00:46.589Z,18.27
2017-08-31T14:03:12.804Z,18.19
2017-08-31T14:05:39.024Z,18.18
2017-08-31T14:08:05.268Z,18.08
2017-08-31T14:10:31.467Z,18.03
2017-08-31T14:12:57.678Z,17.86
2017-08-31T14:15:24.157Z,17.86
2017-08-31T14:17:50.359Z,17.88
2017-08-31T14:20:16.585Z,17.71
2017-08-31T14:22:42.807Z,17.71
2017-08-31T14:25:09.017Z,17.82
2017-08-31T14:27:35.226Z,17.86
2017-08-31T14:30:01.505Z,17.73
2017-08-31T14:32:27.720Z,17.61
2017-08-31T14:34:53.972Z,17.70
2017-08-31T14:37:20.203Z,17.76
2017-08-31T14:39:46.418Z,17.86
2017-08-31T14:42:12.699Z,17.96
2017-08-31T14:44:39.232Z,17.72
2017-08-31T14:47:05.445Z,17.94
2017-08-31T14:49:31.669Z,18.04
2017-08-31T14:51:57.935Z,18.10
2017-08-31T14:54:24.147Z,18.17
2017-08-31T14:56:50.388Z,17.99
2017-08-31T14:59:16.592Z,18.09
2017-08-31T15:01:42.813Z,18.04
2017-08-31T15:04:09.056Z,18.04
2017-08-31T15:06:35.267Z,17.93
2017-08-31T15:09:01.467Z,18.13
2017-08-31T15:11:27.710Z,18.30
2017-08-31T15:13:53.923Z,18.34
2017-08-31T15:16:20.142Z,18.53
2017-08-31T15:18:46.620Z,18.29
2017-08-31T15:21:12.836Z,18.17
2017-08-31T15:23:39.046Z,18.17
2017-08-31T15:26:05.588Z,17.97
2017-08-31T15:28:31.799Z,18.00
2017-08-31T15:30:58.013Z,17.87
2017-08-31T15:33:24.237Z,17.64
2017-08-31T15:35:50.444Z,17.63
2017-08-31T15:38:16.654Z,17.61
2017-08-31T15:40:43.191Z,17.53
2017-08-31T15:43:09.418Z,17.26
2017-08-31T15:45:35.620Z,17.29
2017-08-31T15:48:01.862Z,17.41
2017-08-31T15:50:28.103Z,17.48
2017-08-31T15:52:54.325Z,17.46
2017-08-31T15:55:20.595Z,17.77
2017-08-31T15:57:46.823Z,17.77
2017-08-31T16:00:13.034Z,17.82
2017-08-31T16:02:39.548Z,17.89
2017-08-31T16:05:05.755Z,17.70
2017-08-31T16:07:31.963Z,17.81
2017-08-31T16:09:58.206Z,17.87
2017-08-31T16:12:24.435Z,17.76
2017-08-31T16:14:50.684Z,17.88
2017-08-31T16:17:16.891Z,17.85
2017-08-31T16:19:43.143Z,17.76
2017-08-31T16:22:09.389Z,17.82
2017-08-31T16:24:36.023Z,17.67
2017-08-31T16:27:02.255Z,17.56
2017-08-31T16:29:28.490Z,17.52
2017-08-31T16:31:54.705Z,17.39
2017-08-31T16:34:21.011Z,17.62
2017-08-31T16:36:47.272Z,17.47
2017-08-31T16:39:13.711Z,17.44
2017-08-31T16:41:40.336Z,17.29
2017-08-31T16:44:06.583Z,17.20
2017-08-31T16:46:32.871Z,17.17
2017-08-31T16:48:59.084Z,17.19
2017-08-31T16:51:25.993Z,17.23
2017-08-31T16:53:52.220Z,17.10
2017-08-31T16:56:18.723Z,17.14
2017-08-31T16:58:44.956Z,17.17
2017-08-31T17:01:11.155Z,16.98
2017-08-31T17:03:37.393Z,16.89
2017-08-31T17:06:03.928Z,16.98
2017-08-31T17:08:30.126Z,17.13
2017-08-31T17:10:56.339Z,17.01
2017-08-31T17:13:22.721Z,16.97
2017-08-31T17:15:48.931Z,17.12
2017-08-31T17:18:15.139Z,17.10
2017-08-31T17:20:41.468Z,17.15
2017-08-31T17:23:07.679Z,17.12
2017-08-31T17:25:33.884Z,16.96
2017-08-31T17:28:00.289Z,17.01
2017-08-31T17:30:26.520Z,16.97
2017-08-31T17:32:52.724Z,16.97
2017-08-31T17:35:18.989Z,17.04
2017-08-31T17:37:45.195Z,16.91
2017-08-31T17:40:11.406Z,17.11
2017-08-31T17:42:37.616Z,16.95
2017-08-31T17:45:03.843Z,16.92
2017-08-31T17:47:30.320Z,16.85
2017-08-31T17:49:56.527Z,16.82
2017-08-31T17:52:22.743Z,16.72
2017-08-31T17:54:48.971Z,16.77
2017-08-31T17:57:15.212Z,16.72
2017-08-31T17:59:41.416Z,16.57
2017-08-31T18:02:07.904Z,16.42
2017-08-31T18:04:34.107Z,16.46
2017-08-31T18:07:00.311Z,16.44
2017-08-31T18:09:26.553Z,16.38
2017-08-31T18:11:52.764Z,16.30
2017-08-31T18:14:18.983Z,16.32
2017-08-31T18:16:45.218Z,16.30
2017-08-31T18:19:11.426Z,16.16
2017-08-31T18:21:37.627Z,16.14
2017-08-31T18:24:03.887Z,16.09
2017-08-31T18:26:30.100Z,16.01
2017-08-31T18:28:56.313Z,15.96
2017-08-31T18:31:22.839Z,15.98
2017-08-31T18:33:49.051Z,15.94
2017-08-31T18:36:15.284Z,15.96
2017-08-31T18:38:41.715Z,15.80
2017-08-31T18:41:07.925Z,15.71
2017-08-31T18:43:34.148Z,15.76
2017-08-31T18:46:00.611Z,15.76
2017-08-31T18:48:26.825Z,15.70
2017-08-31T18:50:53.043Z,15.64
2017-08-31T18:53:19.522Z,15.61
2017-08-31T18:55:45.740Z,15.61
2017-08-31T18:58:11.956Z,15.63
2017-08-31T19:00:38.176Z,15.57
2017-08-31T19:03:04.393Z,15.50
2017-08-31T19:05:30.639Z,15.49
2017-08-31T19:07:56.859Z,15.48
2017-08-31T19:10:23.080Z,15.50
2017-08-31T19:12:49.328Z,15.46
2017-08-31T19:15:15.552Z,15.42
2017-08-31T19:17:41.754Z,15.35
2017-08-31T19:20:08.307Z,15.32
2017-08-31T19:22:34.520Z,15.30
2017-08-31T19:25:00.730Z,15.24
2017-08-31T19:27:26.999Z,15.23
2017-08-31T19:29:53.360Z,15.19
2017-08-31T19:32:19.572Z,15.23
2017-08-31T19:34:45.804Z,15.23
2017-08-31T19:37:12.049Z,15.26
2017-08-31T19:39:38.267Z,15.36
2017-08-31T19:42:04.524Z,15.36
2017-08-31T19:44:30.732Z,15.24
2017-08-31T19:46:56.940Z,15.20
2017-08-31T19:49:23.263Z,15.22
2017-08-31T19:51:49.464Z,15.19
2017-08-31T19:54:15.679Z,15.22
2017-08-31T19:56:41.925Z,15.20
2017-08-31T19:59:08.168Z,15.22
2017-08-31T20:01:34.373Z,14.97
2017-08-31T20:04:00.584Z,14.92
2017-08-31T20:06:26.924Z,14.88
2017-08-31T20:08:53.152Z,14.83
2017-08-31T20:11:19.564Z,14.69
2017-08-31T20:13:45.784Z,14.56
2017-08-31T20:16:12.276Z,14.49
2017-08-31T20:18:38.503Z,14.44
2017-08-31T20:21:04.719Z,14.35
2017-08-31T20:23:30.924Z,14.31
2017-08-31T20:25:57.161Z,14.33
2017-08-31T20:28:23.382Z,14.33
2017-08-31T20:30:49.618Z,14.33
2017-08-31T20:33:15.839Z,14.29
2017-08-31T20:35:42.059Z,14.25
2017-08-31T20:38:08.530Z,14.41
2017-08-31T20:40:34.735Z,14.65
2017-08-31T20:43:00.948Z,14.70
2017-08-31T20:45:27.515Z,14.65
2017-08-31T20:47:53.715Z,14.66
2017-08-31T20:50:19.943Z,14.80
2017-08-31T20:52:46.155Z,14.75
2017-08-31T20:55:12.380Z,14.67
2017-08-31T20:57:38.859Z,14.66
2017-08-31T21:00:05.070Z,14.65
2017-08-31T21:02:31.269Z,14.65
2017-08-31T21:04:58.424Z,14.48
2017-08-31T21:07:24.644Z,14.43
2017-08-31T21:09:50.904Z,14.48
2017-08-31T21:12:17.107Z,14.52
2017-08-31T21:14:43.330Z,14.55
2017-08-31T21:17:10.016Z,14.56
2017-08-31T21:19:36.241Z,14.50
2017-08-31T21:22:02.478Z,14.46
2017-08-31T21:24:28.717Z,14.46
2017-08-31T21:26:54.918Z,14.42
2017-08-31T21:29:21.123Z,14.36
2017-08-31T21:31:47.393Z,14.22
2017-08-31T21:34:13.596Z,14.05
2017-08-31T21:36:39.812Z,14.05
2017-08-31T21:39:06.305Z,14.10
2017-08-31T21:41:32.567Z,14.06
2017-08-31T21:43:58.775Z,14.13
2017-08-31T21:46:24.999Z,14.31
2017-08-31T21:48:51.227Z,14.19
2017-08-31T21:51:17.436Z,14.29
2017-08-31T21:53:43.755Z,14.18
2017-08-31T21:56:10.038Z,14.29
2017-08-31T21:58:36.256Z,14.30
2017-08-31T22:01:02.515Z,14.34
2017-08-31T22:03:28.729Z,14.49
2017-08-31T22:05:54.959Z,14.45
2017-08-31T22:08:21.519Z,14.42
2017-08-31T22:10:47.731Z,14.11
2017-08-31T22:13:13.961Z,14.16
2017-08-31T22:15:40.518Z,14.24
2017-08-31T22:18:06.747Z,14.18
2017-08-31T22:20:33.075Z,14.08
2017-08-31T22:22:59.322Z,13.97
2017-08-31T22:25:25.567Z,13.99
2017-08-31T22:27:51.788Z,13.90
2017-08-31T22:30:18.023Z,13.86
2017-08-31T22:32:44.279Z,13.86
2017-08-31T22:35:10.492Z,13.80
2017-08-31T22:37:36.699Z,13.71
2017-08-31T22:40:02.920Z,13.68
2017-08-31T22:42:29.409Z,13.65
2017-08-31T22:44:55.649Z,13.68
2017-08-31T22:47:21.854Z,13.59
2017-08-31T22:49:48.096Z,13.59
2017-08-31T22:52:14.347Z,13.50
2017-08-31T22:54:47.844Z,13.45
2017-08-31T23:00:13.299Z,13.44
2017-08-31T23:02:39.516Z,13.54
2017-08-31T23:05:05.718Z,13.63
2017-08-31T23:07:31.922Z,13.70
2017-08-31T23:09:58.147Z,13.75
2017-08-31T23:12:24.356Z,13.76
2017-08-31T23:14:50.591Z,13.75
2017-08-31T23:17:16.816Z,13.65
2017-08-31T23:19:43.136Z,13.50
2017-08-31T23:22:09.377Z,13.43
2017-08-31T23:24:35.580Z,13.37
2017-08-31T23:27:02.089Z,13.50
2017-08-31T23:29:28.283Z,13.64
2017-08-31T23:31:54.485Z,13.62
2017-08-31T23:34:20.723Z,13.66
2017-08-31T23:36:46.937Z,13.50
2017-08-31T23:39:13.144Z,13.49
2017-08-31T23:41:39.367Z,13.42
2017-08-31T23:44:05.592Z,13.37
2017-08-31T23:46:31.803Z,13.20
2017-08-31T23:48:58.043Z,13.22
2017-08-31T23:51:24.256Z,13.29
2017-08-31T23:53:50.460Z,13.30
2017-08-31T23:56:16.722Z,13.35
2017-08-31T23:58:42.951Z,13.54
